createdAt,value
2019-01-12T00:00:14.052Z,100955.52
2019-01-12T00:02:42.485Z,100959.04
2019-01-12T00:05:10.996Z,100949.80
2019-01-12T00:07:39.493Z,100945.41
2019-01-12T00:10:09.057Z,100953.32
2019-01-12T00:12:37.486Z,100952.88
2019-01-12T00:15:07.811Z,100953.73
2019-01-12T00:17:36.308Z,100951.56
2019-01-12T00:20:07.372Z,100951.56
2019-01-12T00:22:35.907Z,100950.25
2019-01-12T00:25:06.671Z,100950.65
2019-01-12T00:27:35.163Z,100946.29
2019-01-12T00:30:05.028Z,100955.55
2019-01-12T00:32:33.455Z,100948.92
2019-01-12T00:35:01.884Z,100951.56
2019-01-12T00:37:30.344Z,100952.04
2019-01-12T00:39:58.772Z,100952.44
2019-01-12T00:42:27.266Z,100954.67
2019-01-12T00:44:56.060Z,100954.67
2019-01-12T00:47:24.586Z,100952.11
2019-01-12T00:49:53.045Z,100951.23
2019-01-12T00:52:21.649Z,100953.87
2019-01-12T00:54:50.104Z,100958.27
2019-01-12T00:57:18.599Z,100952.55
2019-01-12T00:59:47.064Z,100954.31
2019-01-12T01:02:15.561Z,100967.45
2019-01-12T01:04:44.006Z,100959.09
2019-01-12T01:07:12.608Z,100963.05
2019-01-12T01:09:41.036Z,100962.61
2019-01-12T01:12:09.464Z,100970.02
2019-01-12T01:14:38.000Z,100970.46
2019-01-12T01:17:06.496Z,100974.86
2019-01-12T01:19:34.925Z,100975.30
2019-01-12T01:22:03.597Z,100975.70
2019-01-12T01:24:32.093Z,100976.14
2019-01-12T01:27:00.586Z,100974.81
2019-01-12T01:29:29.039Z,100973.94
2019-01-12T01:31:57.464Z,100981.01
2019-01-12T01:34:25.887Z,100982.73
2019-01-12T01:36:54.380Z,100985.87
2019-01-12T01:39:22.804Z,100980.17
2019-01-12T01:41:51.233Z,100982.39
2019-01-12T01:44:19.720Z,100985.84
2019-01-12T01:46:48.152Z,100990.67
2019-01-12T01:49:16.654Z,100988.08
2019-01-12T01:51:45.431Z,100987.16
2019-01-12T01:54:13.856Z,100989.80
2019-01-12T01:56:42.284Z,100991.16
2019-01-12T01:59:10.741Z,100992.48
2019-01-12T02:01:39.237Z,100992.03
2019-01-12T02:04:07.732Z,100992.48
2019-01-12T02:06:36.196Z,101000.83
2019-01-12T02:09:07.132Z,100989.36
2019-01-12T02:11:35.562Z,100991.12
2019-01-12T02:14:04.254Z,100992.91
2019-01-12T02:16:32.680Z,100990.72
2019-01-12T02:19:01.105Z,100986.28
2019-01-12T02:21:29.609Z,100985.00
2019-01-12T02:23:58.036Z,100982.80
2019-01-12T02:26:26.464Z,100984.16
2019-01-12T02:28:54.925Z,100981.95
2019-01-12T02:31:23.351Z,100978.48
2019-01-12T02:33:51.777Z,100988.52
2019-01-12T02:36:20.230Z,100988.52
2019-01-12T02:38:48.652Z,100984.59
2019-01-12T02:41:17.080Z,100978.41
2019-01-12T02:43:45.531Z,100991.19
2019-01-12T02:46:13.975Z,100992.51
2019-01-12T02:48:42.401Z,100988.55
2019-01-12T02:51:10.856Z,100984.16
2019-01-12T02:53:39.292Z,100984.16
2019-01-12T02:56:07.856Z,100987.23
2019-01-12T02:58:36.396Z,100988.11
2019-01-12T03:01:04.961Z,100981.58
2019-01-12T03:03:33.379Z,100982.02
2019-01-12T03:06:01.848Z,100977.18
2019-01-12T03:08:30.269Z,100976.67
2019-01-12T03:10:58.716Z,100976.23
2019-01-12T03:13:27.187Z,100980.70
2019-01-12T03:15:55.630Z,100974.52
2019-01-12T03:18:24.032Z,100976.23
2019-01-12T03:20:52.509Z,100978.88
2019-01-12T03:23:20.941Z,100973.57
2019-01-12T03:25:49.432Z,100972.25
2019-01-12T03:28:17.965Z,100967.42
2019-01-12T03:30:46.392Z,100971.38
2019-01-12T03:33:14.839Z,100972.25
2019-01-12T03:35:43.299Z,100969.27
2019-01-12T03:38:11.731Z,100970.52
2019-01-12T03:40:40.153Z,100967.44
2019-01-12T03:43:08.955Z,100965.69
2019-01-12T03:45:37.366Z,100963.94
2019-01-12T03:48:05.927Z,100962.17
2019-01-12T03:50:34.382Z,100963.05
2019-01-12T03:53:02.813Z,100963.93
2019-01-12T03:55:31.240Z,100963.54
2019-01-12T03:58:00.961Z,100965.69
2019-01-12T04:00:30.225Z,100963.49
2019-01-12T04:02:58.658Z,100956.02
2019-01-12T04:05:27.381Z,100958.19
2019-01-12T04:07:55.807Z,100953.79
2019-01-12T04:10:24.237Z,100957.83
2019-01-12T04:12:52.770Z,100950.30
2019-01-12T04:15:21.265Z,100945.44
2019-01-12T04:17:49.688Z,100950.72
2019-01-12T04:20:18.711Z,100956.42
2019-01-12T04:22:47.135Z,100951.16
2019-01-12T04:25:15.634Z,100951.59
2019-01-12T04:27:44.092Z,100953.36
2019-01-12T04:30:14.563Z,100948.52
2019-01-12T04:32:43.165Z,100944.12
2019-01-12T04:35:11.935Z,100938.87
2019-01-12T04:37:40.430Z,100934.45
2019-01-12T04:40:11.869Z,100937.09
2019-01-12T04:42:40.322Z,100925.66
2019-01-12T04:45:09.587Z,100935.33
2019-01-12T04:47:38.018Z,100937.97
2019-01-12T04:50:09.585Z,100931.81
2019-01-12T04:52:38.078Z,100930.50
2019-01-12T04:55:07.440Z,100930.94
2019-01-12T04:57:35.969Z,100932.27
2019-01-12T05:00:07.637Z,100931.79
2019-01-12T05:02:36.066Z,100925.66
2019-01-12T05:05:05.610Z,100920.39
2019-01-12T05:07:34.077Z,100916.88
2019-01-12T05:10:02.549Z,100924.34
2019-01-12T05:12:31.024Z,100923.02
2019-01-12T05:14:59.451Z,100919.48
2019-01-12T05:17:27.873Z,100914.67
2019-01-12T05:19:56.328Z,100911.17
2019-01-12T05:22:24.767Z,100917.28
2019-01-12T05:24:53.211Z,100915.11
2019-01-12T05:27:21.676Z,100922.15
2019-01-12T05:29:50.104Z,100923.47
2019-01-12T05:32:18.527Z,100925.66
2019-01-12T05:34:46.982Z,100925.22
2019-01-12T05:37:15.404Z,100924.78
2019-01-12T05:39:43.827Z,100918.66
2019-01-12T05:42:12.315Z,100916.45
2019-01-12T05:44:40.738Z,100916.88
2019-01-12T05:47:09.187Z,100912.94
2019-01-12T05:49:37.643Z,100922.14
2019-01-12T05:52:06.136Z,100925.24
2019-01-12T05:54:34.561Z,100927.88
2019-01-12T05:57:03.051Z,100936.67
2019-01-12T05:59:31.455Z,100936.67
2019-01-12T06:01:59.920Z,100945.50
2019-01-12T06:04:28.459Z,100945.91
2019-01-12T06:06:56.884Z,100950.30
2019-01-12T06:09:25.307Z,100947.22
2019-01-12T06:11:53.862Z,100949.40
2019-01-12T06:14:22.356Z,100951.13
2019-01-12T06:16:50.774Z,100946.73
2019-01-12T06:19:19.264Z,100944.94
2019-01-12T06:21:47.700Z,100937.91
2019-01-12T06:24:16.123Z,100938.78
2019-01-12T06:26:44.578Z,100937.94
2019-01-12T06:29:13.002Z,100933.11
2019-01-12T06:31:41.426Z,100934.02
2019-01-12T06:34:09.876Z,100932.70
2019-01-12T06:36:38.306Z,100932.69
2019-01-12T06:39:08.764Z,100929.63
2019-01-12T06:41:37.223Z,100930.03
2019-01-12T06:44:05.980Z,100926.98
2019-01-12T06:46:34.531Z,100936.22
2019-01-12T06:49:03.028Z,100937.53
2019-01-12T06:51:31.448Z,100937.97
2019-01-12T06:53:59.947Z,100938.87
2019-01-12T06:56:28.491Z,100938.86
2019-01-12T06:58:56.911Z,100941.05
2019-01-12T07:01:25.403Z,100942.80
2019-01-12T07:03:53.853Z,100942.80
2019-01-12T07:06:22.342Z,100933.14
2019-01-12T07:08:50.836Z,100941.89
2019-01-12T07:11:19.305Z,100941.45
2019-01-12T07:13:52.398Z,100940.11
2019-01-12T07:16:20.856Z,100938.84
2019-01-12T07:18:49.393Z,100938.82
2019-01-12T07:21:17.883Z,100933.11
2019-01-12T07:23:46.312Z,100934.83
2019-01-12T07:26:17.593Z,100937.52
2019-01-12T07:28:45.030Z,100936.64
2019-01-12T07:31:13.463Z,100930.91
2019-01-12T07:33:42.063Z,100941.89
2019-01-12T07:36:10.518Z,100940.14
2019-01-12T07:38:38.909Z,100943.24
2019-01-12T07:41:07.440Z,100943.22
2019-01-12T07:43:35.863Z,100950.69
2019-01-12T07:46:04.418Z,100958.19
2019-01-12T07:48:32.874Z,100955.08
2019-01-12T07:51:01.296Z,100962.99
2019-01-12T07:53:29.720Z,100960.42
2019-01-12T07:55:58.491Z,100955.14
2019-01-12T07:58:26.916Z,100956.02
2019-01-12T08:00:55.340Z,100961.30
2019-01-12T08:03:23.858Z,100960.85
2019-01-12T08:05:52.293Z,100958.66
2019-01-12T08:08:20.714Z,100952.47
2019-01-12T08:10:49.266Z,100959.98
2019-01-12T08:13:17.963Z,100955.58
2019-01-12T08:15:46.475Z,100955.11
2019-01-12T08:18:14.931Z,100938.05
2019-01-12T08:20:43.352Z,100934.97
2019-01-12T08:23:11.778Z,100926.16
2019-01-12T08:25:40.371Z,100932.28
2019-01-12T08:28:08.791Z,100924.86
2019-01-12T08:30:37.216Z,100930.08
2019-01-12T08:33:05.842Z,100927.88
2019-01-12T08:35:34.265Z,100932.77
2019-01-12T08:38:02.687Z,100929.20
2019-01-12T08:40:31.135Z,100926.11
2019-01-12T08:42:59.559Z,100924.36
2019-01-12T08:45:27.983Z,100937.17
2019-01-12T08:47:56.511Z,100931.45
2019-01-12T08:50:24.936Z,100934.09
2019-01-12T08:52:53.447Z,100937.59
2019-01-12T08:55:21.906Z,100937.14
2019-01-12T08:57:50.329Z,100936.72
2019-01-12T09:00:19.994Z,100927.03
2019-01-12T09:02:48.510Z,100927.91
2019-01-12T09:05:17.002Z,100933.19
2019-01-12T09:07:45.593Z,100935.83
2019-01-12T09:10:17.137Z,100932.31
2019-01-12T09:12:45.624Z,100916.04
2019-01-12T09:15:14.183Z,100908.13
2019-01-12T09:17:42.779Z,100906.37
2019-01-12T09:20:13.755Z,100911.20
2019-01-12T09:22:42.414Z,100904.19
2019-01-12T09:25:11.600Z,100884.81
2019-01-12T09:27:40.095Z,100887.44
2019-01-12T09:30:19.584Z,100889.21
2019-01-12T09:32:48.660Z,100879.50
2019-01-12T09:35:17.333Z,100875.99
2019-01-12T09:37:45.890Z,100868.98
2019-01-12T09:40:16.155Z,100863.27
2019-01-12T09:42:44.639Z,100871.63
2019-01-12T09:45:15.067Z,100878.20
2019-01-12T09:47:43.560Z,100871.60
2019-01-12T09:50:14.922Z,100880.86
2019-01-12T09:52:43.712Z,100876.02
2019-01-12T09:55:12.270Z,100880.86
2019-01-12T09:57:40.690Z,100869.86
2019-01-12T10:00:12.189Z,100860.19
2019-01-12T10:02:40.620Z,100854.91
2019-01-12T10:05:09.605Z,100850.06
2019-01-12T10:07:38.025Z,100848.72
2019-01-12T10:10:09.483Z,100844.79
2019-01-12T10:12:37.922Z,100847.42
2019-01-12T10:15:08.302Z,100855.79
2019-01-12T10:17:36.722Z,100862.36
2019-01-12T10:20:11.111Z,100867.21
2019-01-12T10:22:39.635Z,100881.31
2019-01-12T10:25:09.595Z,100888.34
2019-01-12T10:27:38.016Z,100881.30
2019-01-12T10:30:09.839Z,100855.35
2019-01-12T10:32:38.356Z,100839.95
2019-01-12T10:35:08.153Z,100827.20
2019-01-12T10:37:36.819Z,100808.27
2019-01-12T10:40:08.558Z,100818.84
2019-01-12T10:42:36.976Z,100811.38
2019-01-12T10:45:09.122Z,100803.47
2019-01-12T10:47:37.612Z,100791.14
2019-01-12T10:50:12.321Z,100786.74
2019-01-12T10:52:40.915Z,100780.17
2019-01-12T10:55:09.472Z,100780.63
2019-01-12T10:57:38.039Z,100774.86
2019-01-12T11:00:09.602Z,100770.89
2019-01-12T11:02:38.022Z,100765.18
2019-01-12T11:05:08.403Z,100768.72
2019-01-12T11:07:36.863Z,100766.98
2019-01-12T11:10:08.703Z,100765.19
2019-01-12T11:12:37.272Z,100759.02
2019-01-12T11:15:11.854Z,100756.86
2019-01-12T11:17:40.415Z,100755.95
2019-01-12T11:20:10.083Z,100750.23
2019-01-12T11:22:38.920Z,100745.86
2019-01-12T11:25:14.711Z,100751.95
2019-01-12T11:27:44.080Z,100751.96
2019-01-12T11:30:20.080Z,100743.63
2019-01-12T11:32:48.762Z,100738.34
2019-01-12T11:35:17.325Z,100730.01
2019-01-12T11:37:46.315Z,100706.66
2019-01-12T11:40:19.260Z,100688.23
2019-01-12T11:42:48.321Z,100683.36
2019-01-12T11:45:16.886Z,100672.75
2019-01-12T11:47:45.580Z,100674.48
2019-01-12T11:50:15.449Z,100673.16
2019-01-12T11:52:44.600Z,100674.04
2019-01-12T11:55:14.868Z,100674.53
2019-01-12T11:57:43.437Z,100670.08
2019-01-12T12:00:17.926Z,100664.84
2019-01-12T12:02:46.692Z,100664.86
2019-01-12T12:05:15.181Z,100661.77
2019-01-12T12:07:43.740Z,100663.95
2019-01-12T12:10:14.228Z,100664.42
2019-01-12T12:12:42.657Z,100654.65
2019-01-12T12:15:13.930Z,100649.38
2019-01-12T12:17:42.435Z,100651.53
2019-01-12T12:20:19.016Z,100643.60
2019-01-12T12:22:47.618Z,100629.52
2019-01-12T12:25:16.187Z,100633.45
2019-01-12T12:27:44.864Z,100626.85
2019-01-12T12:30:16.740Z,100624.20
2019-01-12T12:32:45.301Z,100617.20
2019-01-12T12:35:13.795Z,100620.28
2019-01-12T12:37:42.559Z,100614.54
2019-01-12T12:40:14.030Z,100607.95
2019-01-12T12:42:42.454Z,100604.78
2019-01-12T12:45:14.379Z,100601.27
2019-01-12T12:47:42.916Z,100599.57
2019-01-12T12:50:13.636Z,100592.16
2019-01-12T12:52:42.155Z,100583.75
2019-01-12T12:55:11.835Z,100580.61
2019-01-12T12:57:40.339Z,100572.30
2019-01-12T13:00:11.847Z,100560.39
2019-01-12T13:02:40.268Z,100565.79
2019-01-12T13:05:09.734Z,100560.05
2019-01-12T13:07:38.260Z,100554.71
2019-01-12T13:10:09.732Z,100553.84
2019-01-12T13:12:38.296Z,100543.35
2019-01-12T13:15:08.313Z,100530.62
2019-01-12T13:17:36.871Z,100513.45
2019-01-12T13:20:08.346Z,100513.89
2019-01-12T13:22:36.941Z,100515.60
2019-01-12T13:25:06.406Z,100509.56
2019-01-12T13:27:39.837Z,100514.94
2019-01-12T13:30:19.340Z,100507.91
2019-01-12T13:32:47.831Z,100503.90
2019-01-12T13:35:16.406Z,100493.31
2019-01-12T13:37:45.006Z,100487.70
2019-01-12T13:40:16.874Z,100489.91
2019-01-12T13:42:45.295Z,100484.55
2019-01-12T13:45:16.092Z,100481.01
2019-01-12T13:47:44.584Z,100480.56
2019-01-12T13:50:15.346Z,100471.27
2019-01-12T13:52:44.763Z,100470.90
2019-01-12T13:55:14.626Z,100466.91
2019-01-12T13:57:47.356Z,100462.99
2019-01-12T14:00:19.420Z,100466.03
2019-01-12T14:02:47.989Z,100455.38
2019-01-12T14:05:16.478Z,100444.82
2019-01-12T14:07:44.935Z,100443.43
2019-01-12T14:10:16.735Z,100435.19
2019-01-12T14:12:45.333Z,100434.63
2019-01-12T14:15:16.331Z,100432.06
2019-01-12T14:17:45.010Z,100429.87
2019-01-12T14:20:24.821Z,100415.80
2019-01-12T14:22:53.315Z,100418.31
2019-01-12T14:25:21.762Z,100406.72
2019-01-12T14:27:54.391Z,100402.77
2019-01-12T14:30:20.742Z,100391.77
2019-01-12T14:32:49.428Z,100391.17
2019-01-12T14:35:19.137Z,100388.66
2019-01-12T14:37:47.691Z,100385.55
2019-01-12T14:40:18.621Z,100377.20
2019-01-12T14:42:47.215Z,100371.94
2019-01-12T14:45:24.029Z,100357.44
2019-01-12T14:47:52.542Z,100357.93
2019-01-12T14:50:20.980Z,100360.10
2019-01-12T14:52:49.474Z,100356.27
2019-01-12T14:55:19.491Z,100355.39
2019-01-12T14:57:47.979Z,100354.17
2019-01-12T15:00:18.841Z,100350.56
2019-01-12T15:02:47.344Z,100343.94
2019-01-12T15:05:17.936Z,100341.41
2019-01-12T15:07:46.492Z,100341.83
2019-01-12T15:10:20.662Z,100331.31
2019-01-12T15:12:49.917Z,100331.19
2019-01-12T15:15:19.274Z,100317.23
2019-01-12T15:17:47.875Z,100321.05
2019-01-12T15:20:21.859Z,100321.95
2019-01-12T15:22:50.349Z,100316.49
2019-01-12T15:25:19.385Z,100313.00
2019-01-12T15:27:47.875Z,100312.52
2019-01-12T15:30:21.298Z,100307.72
2019-01-12T15:32:49.903Z,100311.63
2019-01-12T15:35:19.254Z,100313.44
2019-01-12T15:37:47.743Z,100315.19
2019-01-12T15:40:18.216Z,100315.27
2019-01-12T15:42:46.878Z,100312.27
2019-01-12T15:45:18.503Z,100311.44
2019-01-12T15:47:47.088Z,100313.00
2019-01-12T15:50:20.222Z,100304.77
2019-01-12T15:52:48.815Z,100293.27
2019-01-12T15:55:17.407Z,100301.71
2019-01-12T15:57:45.838Z,100297.30
2019-01-12T16:00:17.308Z,100288.52
2019-01-12T16:02:45.873Z,100284.41
2019-01-12T16:05:14.396Z,100282.86
2019-01-12T16:07:42.892Z,100284.83
2019-01-12T16:10:12.740Z,100287.24
2019-01-12T16:12:41.162Z,100283.55
2019-01-12T16:15:12.923Z,100288.08
2019-01-12T16:17:41.443Z,100281.02
2019-01-12T16:20:30.879Z,100275.86
2019-01-12T16:22:59.330Z,100274.91
2019-01-12T16:25:27.762Z,100277.58
2019-01-12T16:27:56.245Z,100268.37
2019-01-12T16:30:25.031Z,100267.94
2019-01-12T16:32:53.445Z,100271.41
2019-01-12T16:35:22.003Z,100266.12
2019-01-12T16:37:50.497Z,100275.67
2019-01-12T16:40:26.624Z,100264.50
2019-01-12T16:42:55.086Z,100262.14
2019-01-12T16:45:23.626Z,100267.07
2019-01-12T16:47:52.044Z,100264.55
2019-01-12T16:50:20.631Z,100256.64
2019-01-12T16:52:49.132Z,100261.02
2019-01-12T16:55:18.592Z,100261.97
2019-01-12T16:57:47.081Z,100260.69
2019-01-12T17:00:18.566Z,100254.45
2019-01-12T17:02:47.069Z,100247.71
2019-01-12T17:05:15.759Z,100247.67
2019-01-12T17:07:44.308Z,100247.30
2019-01-12T17:10:20.811Z,100243.90
2019-01-12T17:12:49.380Z,100240.81
2019-01-12T17:15:19.645Z,100237.72
2019-01-12T17:17:48.234Z,100238.22
2019-01-12T17:20:19.774Z,100237.72
2019-01-12T17:22:49.354Z,100235.98
2019-01-12T17:25:17.955Z,100223.13
2019-01-12T17:27:46.372Z,100215.83
2019-01-12T17:30:17.157Z,100212.27
2019-01-12T17:32:45.714Z,100216.68
2019-01-12T17:35:14.675Z,100220.49
2019-01-12T17:37:43.364Z,100223.59
2019-01-12T17:40:13.552Z,100208.69
2019-01-12T17:42:42.110Z,100199.54
2019-01-12T17:45:18.816Z,100192.56
2019-01-12T17:47:47.322Z,100189.17
2019-01-12T17:50:17.786Z,100195.97
2019-01-12T17:52:47.026Z,100197.22
2019-01-12T17:55:17.690Z,100200.86
2019-01-12T17:57:46.208Z,100208.26
2019-01-12T18:00:19.011Z,100203.84
2019-01-12T18:02:47.504Z,100204.69
2019-01-12T18:05:16.002Z,100197.27
2019-01-12T18:07:44.792Z,100195.95
2019-01-12T18:10:14.550Z,100205.23
2019-01-12T18:12:43.111Z,100202.48
2019-01-12T18:15:15.835Z,100201.14
2019-01-12T18:17:44.255Z,100201.17
2019-01-12T18:20:16.941Z,100189.39
2019-01-12T18:22:46.047Z,100180.04
2019-01-12T18:25:14.922Z,100161.86
2019-01-12T18:27:43.442Z,100155.34
2019-01-12T18:30:17.399Z,100158.91
2019-01-12T18:32:45.841Z,100148.83
2019-01-12T18:35:14.400Z,100144.45
2019-01-12T18:37:43.007Z,100153.78
2019-01-12T18:40:14.000Z,100145.09
2019-01-12T18:42:42.668Z,100125.14
2019-01-12T18:45:13.568Z,100109.64
2019-01-12T18:47:42.109Z,100098.83
2019-01-12T18:50:14.075Z,100095.63
2019-01-12T18:52:42.627Z,100091.79
2019-01-12T18:55:12.896Z,100077.27
2019-01-12T18:57:41.328Z,100072.51
2019-01-12T19:00:18.344Z,100063.09
2019-01-12T19:02:43.341Z,100061.50
2019-01-12T19:05:11.840Z,100065.00
2019-01-12T19:07:40.309Z,100067.52
2019-01-12T19:10:11.476Z,100059.60
2019-01-12T19:12:39.980Z,100065.03
2019-01-12T19:15:12.060Z,100059.36
2019-01-12T19:17:40.557Z,100072.94
2019-01-12T19:20:10.029Z,100064.00
2019-01-12T19:22:38.657Z,100069.69
2019-01-12T19:25:09.727Z,100065.64
2019-01-12T19:27:38.157Z,100073.16
2019-01-12T19:30:09.669Z,100075.50
2019-01-12T19:32:38.093Z,100071.47
2019-01-12T19:35:06.763Z,100071.02
2019-01-12T19:37:35.297Z,100074.01
2019-01-12T19:40:05.240Z,100079.69
2019-01-12T19:42:33.671Z,100073.91
2019-01-12T19:45:02.132Z,100073.82
2019-01-12T19:47:30.574Z,100076.41
2019-01-12T19:49:58.994Z,100068.91
2019-01-12T19:52:27.768Z,100070.76
2019-01-12T19:54:56.204Z,100072.13
2019-01-12T19:57:24.634Z,100074.89
2019-01-12T19:59:53.085Z,100077.48
2019-01-12T20:02:21.519Z,100080.17
2019-01-12T20:04:49.953Z,100095.66
2019-01-12T20:07:18.426Z,100099.84
2019-01-12T20:09:46.851Z,100095.98
2019-01-12T20:12:15.363Z,100088.02
2019-01-12T20:14:44.039Z,100092.38
2019-01-12T20:17:12.537Z,100097.30
2019-01-12T20:19:40.971Z,100107.06
2019-01-12T20:22:09.574Z,100100.48
2019-01-12T20:24:38.023Z,100100.05
2019-01-12T20:27:06.517Z,100105.80
2019-01-12T20:29:34.978Z,100110.41
2019-01-12T20:32:24.277Z,100098.59
2019-01-12T20:34:52.988Z,100087.69
2019-01-12T20:37:30.112Z,100073.02
2019-01-12T20:40:17.863Z,100058.61
2019-01-12T20:43:01.236Z,100063.36
2019-01-12T20:45:53.048Z,100045.57
2019-01-12T20:48:24.530Z,100042.03
2019-01-12T20:51:17.115Z,100036.02
2019-01-12T20:53:51.180Z,100034.03
2019-01-12T20:56:31.772Z,100024.77
2019-01-12T20:59:27.928Z,100028.89
2019-01-12T21:01:54.332Z,100031.63
2019-01-12T21:04:25.775Z,100021.95
2019-01-12T21:07:14.524Z,100021.81
2019-01-12T21:09:57.672Z,100024.42
2019-01-12T21:12:35.101Z,100031.07
2019-01-12T21:15:06.810Z,100032.34
2019-01-12T21:17:35.259Z,100023.10
2019-01-12T21:20:05.709Z,100031.66
2019-01-12T21:22:34.473Z,100032.50
2019-01-12T21:25:02.906Z,100029.95
2019-01-12T21:27:31.692Z,100023.37
2019-01-12T21:30:00.164Z,100023.14
2019-01-12T21:32:28.577Z,100017.92
2019-01-12T21:34:58.338Z,100021.85
2019-01-12T21:37:26.849Z,100020.92
2019-01-12T21:39:55.275Z,100030.17
2019-01-12T21:42:23.800Z,100019.27
2019-01-12T21:44:52.237Z,100022.19
2019-01-12T21:47:20.673Z,100022.39
2019-01-12T21:49:49.193Z,100021.13
2019-01-12T21:52:17.637Z,100021.88
2019-01-12T21:54:46.059Z,100017.47
2019-01-12T21:57:14.506Z,100018.42
2019-01-12T21:59:42.985Z,100015.94
2019-01-12T22:02:11.394Z,100016.36
2019-01-12T22:04:39.852Z,100018.94
2019-01-12T22:07:08.271Z,100023.38
2019-01-12T22:09:36.694Z,100017.53
2019-01-12T22:12:05.380Z,100002.87
2019-01-12T22:14:33.819Z,100002.84
2019-01-12T22:17:02.329Z,100003.70
2019-01-12T22:19:36.775Z,100009.70
2019-01-12T22:22:05.337Z,100003.26
2019-01-12T22:24:33.759Z,100011.63
2019-01-12T22:27:02.301Z,100005.28
2019-01-12T22:29:30.726Z,100002.84
2019-01-12T22:31:59.141Z,100011.16
2019-01-12T22:34:27.667Z,100009.22
2019-01-12T22:36:56.158Z,100009.37
2019-01-12T22:39:24.584Z,100006.34
2019-01-12T22:41:53.115Z,100007.31
2019-01-12T22:44:21.571Z,100008.98
2019-01-12T22:46:49.998Z,100010.02
2019-01-12T22:49:18.547Z,99995.38
2019-01-12T22:51:46.966Z,99990.83
2019-01-12T22:54:16.589Z,99991.97
2019-01-12T22:56:45.334Z,99992.67
2019-01-12T22:59:13.759Z,99995.38
2019-01-12T23:01:44.225Z,100003.25
2019-01-12T23:04:12.819Z,100010.27
2019-01-12T23:06:41.379Z,100006.30
2019-01-12T23:09:11.171Z,100014.34
2019-01-12T23:11:39.679Z,100011.52
2019-01-12T23:14:08.098Z,100008.59
2019-01-12T23:16:36.591Z,100004.05
2019-01-12T23:19:05.602Z,100001.72
2019-01-12T23:21:34.090Z,99989.99
2019-01-12T23:24:02.590Z,99990.52
2019-01-12T23:26:31.142Z,99992.73
2019-01-12T23:28:59.558Z,99987.17
2019-01-12T23:31:28.045Z,99986.20
2019-01-12T23:33:56.498Z,99988.81
2019-01-12T23:36:25.049Z,99996.88
2019-01-12T23:38:53.538Z,99992.59
2019-01-12T23:41:22.057Z,99991.72
2019-01-12T23:43:50.546Z,99988.14
2019-01-12T23:46:18.962Z,99985.40
2019-01-12T23:48:47.487Z,99988.91
2019-01-12T23:51:15.974Z,99985.84
2019-01-12T23:53:44.390Z,99986.62
2019-01-12T23:56:12.839Z,99980.50
2019-01-12T23:58:41.326Z,99982.00
